Time;durP1;ratioP1;P1;durP2;ratioP2;P2;SDS_P1;SDS_P2;PMS_P1;PMS_P2;Temp;Humidity;BMP_temperature;BMP_pressure;BME280_temperature;BME280_humidity;BME280_pressure;Samples;Min_cycle;Max_cycle;Signal;HPM_P1;HPM_P2
2021/10/06 00:01:12;;;;;;;;;;;;;;;;;;5032085;28;19911;-85
2021/10/06 00:03:38;;;;;;;;;;;;;;;;;;5032174;28;19905;-83
2021/10/06 00:06:03;;;;;;;;;;;;;;;;;;5037731;28;19967;-83
2021/10/06 00:08:29;;;;;;;;;;;;;;;;;;5051676;28;19905;-83
2021/10/06 00:10:55;;;;;;;;;;;;;;;;;;5049834;28;20371;-83
2021/10/06 00:13:21;;;;;;;;;;;;;;;;;;5050401;28;19912;-83
2021/10/06 00:15:47;;;;;;;;;;;;;;;;;;5046523;28;19908;-83
2021/10/06 00:18:13;;;;;;;;;;;;;;;;;;5031684;28;19925;-83
2021/10/06 00:20:39;;;;;;;;;;;;;;;;;;5013366;28;20203;-83
2021/10/06 00:23:05;;;;;;;;;;;;;;;;;;5038654;28;19913;-83
2021/10/06 00:25:30;;;;;;;;;;;;;;;;;;5029636;28;19909;-83
2021/10/06 00:27:56;;;;;;;;;;;;;;;;;;5026851;28;20003;-83
2021/10/06 00:30:22;;;;;;;;;;;;;;;;;;5032833;28;19959;-82
2021/10/06 00:32:48;;;;;;;;;;;;;;;;;;5034578;28;19909;-83
2021/10/06 00:35:14;;;;;;;;;;;;;;;;;;5051161;28;19916;-83
2021/10/06 00:37:40;;;;;;;;;;;;;;;;;;5042821;28;20427;-83
2021/10/06 00:40:06;;;;;;;;;;;;;;;;;;5053092;28;19909;-83
2021/10/06 00:42:32;;;;;;;;;;;;;;;;;;5055269;28;19908;-83
2021/10/06 00:44:58;;;;;;;;;;;;;;;;;;5028714;28;20012;-82
2021/10/06 00:47:23;;;;;;;;;;;;;;;;;;5041164;28;19919;-83
2021/10/06 00:49:49;;;;;;;;;;;;;;;;;;5055211;28;20393;-83
2021/10/06 00:52:15;;;;;;;;;;;;;;;;;;5054959;28;20015;-83
2021/10/06 00:54:41;;;;;;;;;;;;;;;;;;5037244;28;19908;-83
2021/10/06 00:57:07;;;;;;;;;;;;;;;;;;5033452;28;19913;-83
2021/10/06 00:59:33;;;;;;;;;;;;;;;;;;5033667;28;19958;-83
2021/10/06 01:01:59;;;;;;;;;;;;;;;;;;5033779;28;20328;-83
2021/10/06 01:04:24;;;;;;;;;;;;;;;;;;5043404;28;19912;-84
2021/10/06 01:06:50;;;;;;;;;;;;;;;;;;5054878;28;20007;-83
2021/10/06 01:09:16;;;;;;;;;;;;;;;;;;5054840;28;19904;-82
2021/10/06 01:11:42;;;;;;;;;;;;;;;;;;5054471;28;20374;-83
2021/10/06 01:14:08;;;;;;;;;;;;;;;;;;5054283;28;19916;-83
2021/10/06 01:16:34;;;;;;;;;;;;;;;;;;5053592;28;20606;-83
2021/10/06 01:19:00;;;;;;;;;;;;;;;;;;5053376;28;19913;-84
2021/10/06 01:21:26;;;;;;;;;;;;;;;;;;5054497;28;19943;-83
2021/10/06 01:23:52;;;;;;;;;;;;;;;;;;5051854;28;20399;-83
2021/10/06 01:26:21;;;;;;;;;;;;;;;;;;5053404;28;19908;-83
2021/10/06 01:28:47;;;;;;;;;;;;;;;;;;5054470;28;19911;-83
2021/10/06 01:31:12;;;;;;;;;;;;;;;;;;5051455;28;19913;-84
2021/10/06 01:33:38;;;;;;;;;;;;;;;;;;5054536;28;19911;-83
2021/10/06 01:36:04;;;;;;;;;;;;;;;;;;5052717;28;19912;-83
2021/10/06 01:38:30;;;;;;;;;;;;;;;;;;5052720;28;20329;-83
2021/10/06 01:40:56;;;;;;;;;;;;;;;;;;5053803;28;20003;-83
2021/10/06 01:43:22;;;;;;;;;;;;;;;;;;5051406;28;19912;-83
2021/10/06 01:45:48;;;;;;;;;;;;;;;;;;5034663;28;19912;-83
2021/10/06 01:48:13;;;;;;;;;;;;;;;;;;5048429;28;19958;-83
2021/10/06 01:50:42;;;;;;;;;;;;;;;;;;5052391;28;19912;-83
2021/10/06 01:53:08;;;;;;;;;;;;;;;;;;5054187;28;19916;-83
2021/10/06 01:55:34;;;;;;;;;;;;;;;;;;5054040;28;20277;-82
2021/10/06 01:58:00;;;;;;;;;;;;;;;;;;5053407;28;19967;-83
2021/10/06 02:00:26;;;;;;;;;;;;;;;;;;5052596;28;19912;-83
2021/10/06 02:02:52;;;;;;;;;;;;;;;;;;5051547;28;19919;-83
2021/10/06 02:05:18;;;;;;;;;;;;;;;;;;5053287;28;20357;-83
2021/10/06 02:07:44;;;;;;;;;;;;;;;;;;5053875;28;19904;-84
2021/10/06 02:10:10;;;;;;;;;;;;;;;;;;5053387;28;19996;-82
2021/10/06 02:12:36;;;;;;;;;;;;;;;;;;5033284;28;19919;-83
2021/10/06 02:15:01;;;;;;;;;;;;;;;;;;5044056;28;19948;-83
2021/10/06 02:17:27;;;;;;;;;;;;;;;;;;5033025;28;20445;-83
2021/10/06 02:19:53;;;;;;;;;;;;;;;;;;5039804;28;19909;-83
2021/10/06 02:22:19;;;;;;;;;;;;;;;;;;5033723;28;20003;-84
2021/10/06 02:24:46;;;;;;;;;;;;;;;;;;5034537;28;19978;-83
2021/10/06 02:27:12;;;;;;;;;;;;;;;;;;5040354;28;19909;-83
2021/10/06 02:29:38;;;;;;;;;;;;;;;;;;5059889;28;20004;-83
2021/10/06 02:32:04;;;;;;;;;;;;;;;;;;5062207;28;19905;-83
2021/10/06 02:34:29;;;;;;;;;;;;;;;;;;5047984;28;19908;-84
2021/10/06 02:36:55;;;;;;;;;;;;;;;;;;5044286;28;20031;-83
2021/10/06 02:39:21;;;;;;;;;;;;;;;;;;5046339;28;19967;-83
2021/10/06 02:41:47;;;;;;;;;;;;;;;;;;5044862;28;19980;-83
2021/10/06 02:44:13;;;;;;;;;;;;;;;;;;5036881;28;19959;-83
2021/10/06 02:46:39;;;;;;;;;;;;;;;;;;5046649;28;19912;-83
2021/10/06 02:49:05;;;;;;;;;;;;;;;;;;5059489;28;19936;-83
2021/10/06 02:51:31;;;;;;;;;;;;;;;;;;5068072;28;19911;-83
2021/10/06 02:53:56;;;;;;;;;;;;;;;;;;5060827;28;19905;-83
2021/10/06 02:56:22;;;;;;;;;;;;;;;;;;5042777;28;20458;-83
2021/10/06 02:58:49;;;;;;;;;;;;;;;;;;5054738;28;19908;-83
2021/10/06 03:01:15;;;;;;;;;;;;;;;;;;5035857;28;19962;-83
2021/10/06 03:03:40;;;;;;;;;;;;;;;;;;5059504;28;19896;-83
2021/10/06 03:06:06;;;;;;;;;;;;;;;;;;5077308;28;19919;-83
2021/10/06 03:08:32;;;;;;;;;;;;;;;;;;5074256;28;20097;-83
2021/10/06 03:10:58;;;;;;;;;;;;;;;;;;5052700;28;19908;-83
2021/10/06 03:13:24;;;;;;;;;;;;;;;;;;5050676;28;19909;-84
2021/10/06 03:15:50;;;;;;;;;;;;;;;;;;5052127;28;19905;-83
2021/10/06 03:18:16;;;;;;;;;;;;;;;;;;5051996;28;19954;-83
2021/10/06 03:20:41;;;;;;;;;;;;;;;;;;5051570;28;19905;-83
2021/10/06 03:23:08;;;;;;;;;;;;;;;;;;5046703;28;20548;-83
2021/10/06 03:25:33;;;;;;;;;;;;;;;;;;5014016;28;20388;-83
2021/10/06 03:27:59;;;;;;;;;;;;;;;;;;5031867;28;19912;-83
2021/10/06 03:30:25;;;;;;;;;;;;;;;;;;5013704;28;20014;-83
2021/10/06 03:32:51;;;;;;;;;;;;;;;;;;5051222;28;19915;-83
2021/10/06 03:35:18;;;;;;;;;;;;;;;;;;5051754;28;20042;-83
2021/10/06 03:37:44;;;;;;;;;;;;;;;;;;5051469;28;19909;-83
2021/10/06 03:40:10;;;;;;;;;;;;;;;;;;5032710;28;20388;-83
2021/10/06 03:42:36;;;;;;;;;;;;;;;;;;5051873;28;19905;-83
2021/10/06 03:45:02;;;;;;;;;;;;;;;;;;5051644;28;19905;-83
2021/10/06 03:47:27;;;;;;;;;;;;;;;;;;5039057;28;19912;-83
2021/10/06 03:49:53;;;;;;;;;;;;;;;;;;5050867;28;20349;-83
2021/10/06 03:52:19;;;;;;;;;;;;;;;;;;5051806;28;19911;-83
2021/10/06 03:54:45;;;;;;;;;;;;;;;;;;5051406;28;19925;-83
2021/10/06 03:57:11;;;;;;;;;;;;;;;;;;5050596;28;19912;-83
2021/10/06 03:59:37;;;;;;;;;;;;;;;;;;5013241;28;19905;-83
2021/10/06 04:02:03;;;;;;;;;;;;;;;;;;5013566;28;19958;-83
2021/10/06 04:04:29;;;;;;;;;;;;;;;;;;5025985;28;19909;-82
2021/10/06 04:06:54;;;;;;;;;;;;;;;;;;5034960;28;20011;-82
2021/10/06 04:09:20;;;;;;;;;;;;;;;;;;5034112;28;20050;-83
2021/10/06 04:11:46;;;;;;;;;;;;;;;;;;5049944;28;19915;-82
2021/10/06 04:14:12;;;;;;;;;;;;;;;;;;5026749;28;20316;-82
2021/10/06 04:16:38;;;;;;;;;;;;;;;;;;5051805;28;19992;-82
2021/10/06 04:19:04;;;;;;;;;;;;;;;;;;5051560;28;19916;-82
2021/10/06 04:21:30;;;;;;;;;;;;;;;;;;5050780;28;19904;-83
2021/10/06 04:23:56;;;;;;;;;;;;;;;;;;5049044;28;19939;-83
2021/10/06 04:26:22;;;;;;;;;;;;;;;;;;5047762;28;19956;-83
2021/10/06 04:28:47;;;;;;;;;;;;;;;;;;5048230;28;19915;-83
2021/10/06 04:31:13;;;;;;;;;;;;;;;;;;5047899;28;19916;-83
2021/10/06 04:33:39;;;;;;;;;;;;;;;;;;5050130;28;20293;-83
2021/10/06 04:36:05;;;;;;;;;;;;;;;;;;5059786;23;19928;-82
2021/10/06 04:38:31;;;;;;;;;;;;;;;;;;5051143;28;19920;-83
2021/10/06 04:40:57;;;;;;;;;;;;;;;;;;5055578;28;19920;-83
2021/10/06 04:43:23;;;;;;;;;;;;;;;;;;5037354;28;19901;-83
2021/10/06 04:45:49;;;;;;;;;;;;;;;;;;5050815;28;19995;-83
2021/10/06 04:48:15;;;;;;;;;;;;;;;;;;5042153;28;19908;-83
2021/10/06 04:50:40;;;;;;;;;;;;;;;;;;5032890;28;20427;-82
2021/10/06 04:53:06;;;;;;;;;;;;;;;;;;5041041;28;19952;-83
2021/10/06 04:55:32;;;;;;;;;;;;;;;;;;5047098;28;19912;-81
2021/10/06 04:57:58;;;;;;;;;;;;;;;;;;5029674;28;19920;-82
2021/10/06 05:00:24;;;;;;;;;;;;;;;;;;5043073;28;19961;-82
2021/10/06 05:02:50;;;;;;;;;;;;;;;;;;5053361;28;20047;-82
2021/10/06 05:05:16;;;;;;;;;;;;;;;;;;5047220;28;19909;-82
2021/10/06 05:07:42;;;;;;;;;;;;;;;;;;5046174;28;19912;-82
2021/10/06 05:10:08;;;;;;;;;;;;;;;;;;5056109;28;19913;-81
2021/10/06 05:12:34;;;;;;;;;;;;;;;;;;5025449;28;19913;-81
2021/10/06 05:15:00;;;;;;;;;;;;;;;;;;5038727;28;19935;-81
2021/10/06 05:17:26;;;;;;;;;;;;;;;;;;5041510;28;19912;-82
2021/10/06 05:19:52;;;;;;;;;;;;;;;;;;5043440;28;19906;-81
2021/10/06 05:22:18;;;;;;;;;;;;;;;;;;5032269;28;20396;-82
2021/10/06 05:24:44;;;;;;;;;;;;;;;;;;5056707;28;19963;-81
2021/10/06 05:27:11;;;;;;;;;;;;;;;;;;5057168;28;19987;-81
2021/10/06 05:29:37;;;;;;;;;;;;;;;;;;5053032;28;19932;-82
2021/10/06 05:32:05;;;;;;;;;;;;;;;;;;5048864;28;19909;-83
2021/10/06 05:34:31;;;;;;;;;;;;;;;;;;5056694;28;19966;-83
2021/10/06 05:36:58;;;;;;;;;;;;;;;;;;5053251;28;19920;-83
2021/10/06 05:39:23;;;;;;;;;;;;;;;;;;5055312;28;19911;-82
2021/10/06 05:41:49;;;;;;;;;;;;;;;;;;5055072;28;19995;-83
2021/10/06 05:44:15;;;;;;;;;;;;;;;;;;5057997;28;19913;-83
2021/10/06 05:46:41;;;;;;;;;;;;;;;;;;5048024;28;19919;-84
2021/10/06 05:49:07;;;;;;;;;;;;;;;;;;5057140;28;19947;-83
2021/10/06 05:51:33;;;;;;;;;;;;;;;;;;5031278;28;19912;-82
2021/10/06 05:53:59;;;;;;;;;;;;;;;;;;5059561;28;19905;-84
2021/10/06 05:56:25;;;;;;;;;;;;;;;;;;5057558;28;20387;-84
2021/10/06 05:58:51;;;;;;;;;;;;;;;;;;5059429;28;19932;-83
2021/10/06 06:01:17;;;;;;;;;;;;;;;;;;5058892;28;19904;-84
2021/10/06 06:03:43;;;;;;;;;;;;;;;;;;5060179;28;19909;-83
2021/10/06 06:06:09;;;;;;;;;;;;;;;;;;5034792;28;19916;-84
2021/10/06 06:08:35;;;;;;;;;;;;;;;;;;5045139;28;19904;-84
2021/10/06 06:11:01;;;;;;;;;;;;;;;;;;5040790;28;19913;-83
2021/10/06 06:13:26;;;;;;;;;;;;;;;;;;5031749;28;19909;-84
2021/10/06 06:15:53;;;;;;;;;;;;;;;;;;5049447;28;19913;-83
2021/10/06 06:18:19;;;;;;;;;;;;;;;;;;5043129;28;19915;-84
2021/10/06 06:20:45;;;;;;;;;;;;;;;;;;5042409;28;20346;-82
2021/10/06 06:23:11;;;;;;;;;;;;;;;;;;5045365;28;19904;-82
2021/10/06 06:25:37;;;;;;;;;;;;;;;;;;5039324;28;19908;-83
2021/10/06 06:28:03;;;;;;;;;;;;;;;;;;5057382;28;19905;-83
2021/10/06 06:30:29;;;;;;;;;;;;;;;;;;5064683;28;19917;-83
2021/10/06 06:32:55;;;;;;;;;;;;;;;;;;5043801;28;19959;-83
2021/10/06 06:35:21;;;;;;;;;;;;;;;;;;5046692;28;19908;-83
2021/10/06 06:37:47;;;;;;;;;;;;;;;;;;5050861;28;19913;-83
2021/10/06 06:40:13;;;;;;;;;;;;;;;;;;5030120;28;20482;-82
2021/10/06 06:42:40;;;;;;;;;;;;;;;;;;5054839;28;19920;-84
2021/10/06 06:45:07;;;;;;;;;;;;;;;;;;5037559;28;20272;-82
2021/10/06 06:47:33;;;;;;;;;;;;;;;;;;5038006;28;20482;-83
2021/10/06 06:49:59;;;;;;;;;;;;;;;;;;5057257;28;19905;-83
2021/10/06 06:52:25;;;;;;;;;;;;;;;;;;5044937;28;19909;-84
2021/10/06 06:54:51;;;;;;;;;;;;;;;;;;5037856;28;19932;-85
2021/10/06 06:57:16;;;;;;;;;;;;;;;;;;5038949;28;19909;-85
2021/10/06 06:59:42;;;;;;;;;;;;;;;;;;5037159;28;20419;-84
2021/10/06 07:02:11;;;;;;;;;;;;;;;;;;5034599;28;19905;-84
2021/10/06 07:04:37;;;;;;;;;;;;;;;;;;5037774;28;19972;-85
2021/10/06 07:07:04;;;;;;;;;;;;;;;;;;5037978;28;19905;-85
2021/10/06 07:09:30;;;;;;;;;;;;;;;;;;5044588;28;19905;-83
2021/10/06 07:11:56;;;;;;;;;;;;;;;;;;5029172;28;20023;-84
2021/10/06 07:14:22;;;;;;;;;;;;;;;;;;5033502;28;20010;-83
2021/10/06 07:16:48;;;;;;;;;;;;;;;;;;5032828;28;19931;-82
2021/10/06 07:19:14;;;;;;;;;;;;;;;;;;5033057;28;19924;-83
2021/10/06 07:21:43;;;;;;;;;;;;;;;;;;5032811;28;20703;-83
2021/10/06 07:24:09;;;;;;;;;;;;;;;;;;5033260;28;19905;-83
2021/10/06 07:26:35;;;;;;;;;;;;;;;;;;5033441;28;19912;-83
2021/10/06 07:29:01;;;;;;;;;;;;;;;;;;5033611;28;19931;-83
2021/10/06 07:31:27;;;;;;;;;;;;;;;;;;5036066;28;19905;-83
2021/10/06 07:33:53;;;;;;;;;;;;;;;;;;5038095;28;19935;-84
2021/10/06 07:36:19;;;;;;;;;;;;;;;;;;5038322;28;19913;-84
2021/10/06 07:38:45;;;;;;;;;;;;;;;;;;5020315;28;20071;-84
2021/10/06 07:41:10;;;;;;;;;;;;;;;;;;5038747;28;19905;-85
2021/10/06 07:43:36;;;;;;;;;;;;;;;;;;5026608;28;19915;-84
2021/10/06 07:46:02;;;;;;;;;;;;;;;;;;5056261;28;19911;-85
2021/10/06 07:48:28;;;;;;;;;;;;;;;;;;5038563;28;19913;-85
2021/10/06 07:50:54;;;;;;;;;;;;;;;;;;5039764;28;19920;-84
2021/10/06 07:53:20;;;;;;;;;;;;;;;;;;5042450;28;19967;-84
2021/10/06 07:55:46;;;;;;;;;;;;;;;;;;5026548;28;19909;-84
2021/10/06 07:58:12;;;;;;;;;;;;;;;;;;5041365;28;19920;-84
2021/10/06 08:00:37;;;;;;;;;;;;;;;;;;5038828;28;19905;-84
2021/10/06 08:03:03;;;;;;;;;;;;;;;;;;5035892;28;19948;-84
2021/10/06 08:05:29;;;;;;;;;;;;;;;;;;5038395;28;19924;-84
2021/10/06 08:07:55;;;;;;;;;;;;;;;;;;5037759;28;19904;-85
2021/10/06 08:10:21;;;;;;;;;;;;;;;;;;5038822;28;19906;-85
2021/10/06 08:12:47;;;;;;;;;;;;;;;;;;5039121;28;19972;-85
2021/10/06 08:15:13;;;;;;;;;;;;;;;;;;5038042;28;20393;-85
2021/10/06 08:17:39;;;;;;;;;;;;;;;;;;5039497;28;19920;-85
2021/10/06 08:20:04;;;;;;;;;;;;;;;;;;5039708;28;20361;-85
2021/10/06 08:22:30;;;;;;;;;;;;;;;;;;5040954;28;20023;-85
2021/10/06 08:24:56;;;;;;;;;;;;;;;;;;5041675;28;19919;-85
2021/10/06 08:27:22;;;;;;;;;;;;;;;;;;5040957;28;19999;-84
2021/10/06 08:29:48;;;;;;;;;;;;;;;;;;5023427;28;19944;-85
2021/10/06 08:32:14;;;;;;;;;;;;;;;;;;5040232;28;19905;-85
2021/10/06 08:34:40;;;;;;;;;;;;;;;;;;5026243;28;20020;-84
2021/10/06 08:37:06;;;;;;;;;;;;;;;;;;5027017;28;19913;-85
2021/10/06 08:39:31;;;;;;;;;;;;;;;;;;5045809;28;19939;-83
2021/10/06 08:41:57;;;;;;;;;;;;;;;;;;5033803;28;19917;-84
2021/10/06 08:44:23;;;;;;;;;;;;;;;;;;5047955;28;20306;-85
2021/10/06 08:46:49;;;;;;;;;;;;;;;;;;5036711;28;19905;-85
2021/10/06 08:49:15;;;;;;;;;;;;;;;;;;5036331;28;19909;-84
2021/10/06 08:51:41;;;;;;;;;;;;;;;;;;5017612;28;19956;-85
2021/10/06 08:54:08;;;;;;;;;;;;;;;;;;5035283;28;20031;-85
2021/10/06 08:56:34;;;;;;;;;;;;;;;;;;5034062;28;19909;-84
2021/10/06 08:59:00;;;;;;;;;;;;;;;;;;5034075;28;19936;-85
2021/10/06 09:01:26;;;;;;;;;;;;;;;;;;5032219;28;19920;-84
2021/10/06 09:03:52;;;;;;;;;;;;;;;;;;5017402;28;20038;-85
2021/10/06 09:06:18;;;;;;;;;;;;;;;;;;5036856;28;19912;-85
2021/10/06 09:08:43;;;;;;;;;;;;;;;;;;5026082;28;20380;-84
2021/10/06 09:11:09;;;;;;;;;;;;;;;;;;5054714;28;19904;-85
2021/10/06 09:13:35;;;;;;;;;;;;;;;;;;5018704;28;19967;-85
2021/10/06 09:16:01;;;;;;;;;;;;;;;;;;5036785;28;19948;-85
2021/10/06 09:18:27;;;;;;;;;;;;;;;;;;5019237;28;20457;-85
2021/10/06 09:20:53;;;;;;;;;;;;;;;;;;5017633;28;19905;-85
2021/10/06 09:23:19;;;;;;;;;;;;;;;;;;5035981;28;19905;-85
2021/10/06 09:25:45;;;;;;;;;;;;;;;;;;5018141;28;20250;-85
2021/10/06 09:28:11;;;;;;;;;;;;;;;;;;5035368;28;19905;-84
2021/10/06 09:30:36;;;;;;;;;;;;;;;;;;5034858;28;19916;-84
2021/10/06 09:33:03;;;;;;;;;;;;;;;;;;5017072;28;19909;-85
2021/10/06 09:35:29;;;;;;;;;;;;;;;;;;5017166;28;20007;-84
2021/10/06 09:37:55;;;;;;;;;;;;;;;;;;5035582;28;20001;-85
2021/10/06 09:40:21;;;;;;;;;;;;;;;;;;5018318;28;19968;-85
2021/10/06 09:42:47;;;;;;;;;;;;;;;;;;5031686;28;19897;-84
2021/10/06 09:45:13;;;;;;;;;;;;;;;;;;5074869;28;19959;-84
2021/10/06 09:47:39;;;;;;;;;;;;;;;;;;5055911;28;19905;-85
2021/10/06 09:50:05;;;;;;;;;;;;;;;;;;5038293;28;19913;-85
2021/10/06 09:52:31;;;;;;;;;;;;;;;;;;5034099;28;19966;-84
2021/10/06 09:54:57;;;;;;;;;;;;;;;;;;5016345;28;20008;-85
2021/10/06 09:57:23;;;;;;;;;;;;;;;;;;5023371;28;20003;-85
2021/10/06 09:59:49;;;;;;;;;;;;;;;;;;5044948;28;20332;-85
2021/10/06 10:02:14;;;;;;;;;;;;;;;;;;5023799;28;19966;-85
2021/10/06 10:04:40;;;;;;;;;;;;;;;;;;5033777;28;20334;-85
2021/10/06 10:07:06;;;;;;;;;;;;;;;;;;5052253;28;19974;-85
2021/10/06 10:09:32;;;;;;;;;;;;;;;;;;5053389;28;19904;-85
2021/10/06 10:11:58;;;;;;;;;;;;;;;;;;5031758;28;19958;-84
2021/10/06 10:14:24;;;;;;;;;;;;;;;;;;5042313;28;19912;-85
2021/10/06 10:16:50;;;;;;;;;;;;;;;;;;5053794;28;19912;-85
2021/10/06 10:19:16;;;;;;;;;;;;;;;;;;5034709;28;19917;-84
2021/10/06 10:21:42;;;;;;;;;;;;;;;;;;5033366;28;20350;-85
2021/10/06 10:24:07;;;;;;;;;;;;;;;;;;5033575;28;19909;-84
2021/10/06 10:26:33;;;;;;;;;;;;;;;;;;5033556;28;19984;-84
2021/10/06 10:28:59;;;;;;;;;;;;;;;;;;5033741;28;19919;-84
2021/10/06 10:31:25;;;;;;;;;;;;;;;;;;5041074;28;19905;-85
2021/10/06 10:33:52;;;;;;;;;;;;;;;;;;5035385;28;20261;-85
2021/10/06 10:36:18;;;;;;;;;;;;;;;;;;5069087;22;20150;-83
2021/10/06 10:38:44;;;;;;;;;;;;;;;;;;4953935;28;20367;-83
2021/10/06 10:41:10;;;;;;;;;;;;;;;;;;4966734;28;19956;-83
2021/10/06 10:43:36;;;;;;;;;;;;;;;;;;5055075;28;19910;-84
2021/10/06 10:46:02;;;;;;;;;;;;;;;;;;4970928;28;19917;-84
2021/10/06 10:48:28;;;;;;;;;;;;;;;;;;4971416;28;19921;-84
2021/10/06 10:50:54;;;;;;;;;;;;;;;;;;4972485;28;19907;-83
2021/10/06 10:53:20;;;;;;;;;;;;;;;;;;4972335;28;19906;-84
2021/10/06 10:55:46;;;;;;;;;;;;;;;;;;4970782;28;19969;-83
2021/10/06 10:58:12;;;;;;;;;;;;;;;;;;4971207;28;19918;-84
2021/10/06 11:00:38;;;;;;;;;;;;;;;;;;4967991;28;19906;-83
2021/10/06 11:03:04;;;;;;;;;;;;;;;;;;5005515;28;19907;-83
2021/10/06 11:05:31;;;;;;;;;;;;;;;;;;4974155;28;19930;-84
2021/10/06 11:07:56;;;;;;;;;;;;;;;;;;4972360;28;20408;-85
2021/10/06 11:10:26;;;;;;;;;;;;;;;;;;4971955;28;19957;-85
2021/10/06 11:12:52;;;;;;;;;;;;;;;;;;4969572;28;19906;-82
2021/10/06 11:15:18;;;;;;;;;;;;;;;;;;4969692;28;19982;-84
2021/10/06 11:17:44;;;;;;;;;;;;;;;;;;4971682;28;19977;-84
2021/10/06 11:20:10;;;;;;;;;;;;;;;;;;4970772;28;20043;-85
2021/10/06 11:22:36;;;;;;;;;;;;;;;;;;4953285;28;19917;-85
2021/10/06 11:25:01;;;;;;;;;;;;;;;;;;4954946;28;20271;-85
2021/10/06 11:27:27;;;;;;;;;;;;;;;;;;4955005;28;19961;-86
2021/10/06 11:29:53;;;;;;;;;;;;;;;;;;4954905;28;19912;-85
2021/10/06 11:32:19;;;;;;;;;;;;;;;;;;4953010;28;19906;-85
2021/10/06 11:34:45;;;;;;;;;;;;;;;;;;4954448;28;19954;-85
2021/10/06 11:37:11;;;;;;;;;;;;;;;;;;4954244;28;19957;-85
2021/10/06 11:39:37;;;;;;;;;;;;;;;;;;4954514;28;19997;-85
2021/10/06 11:42:03;;;;;;;;;;;;;;;;;;4945073;28;19911;-83
2021/10/06 11:44:29;;;;;;;;;;;;;;;;;;4950047;28;19907;-83
2021/10/06 11:46:54;;;;;;;;;;;;;;;;;;4935567;28;20397;-83
2021/10/06 11:49:20;;;;;;;;;;;;;;;;;;4938575;28;19914;-83
2021/10/06 11:51:46;;;;;;;;;;;;;;;;;;4954146;28;20562;-84
2021/10/06 11:54:12;;;;;;;;;;;;;;;;;;4954622;28;19938;-85
2021/10/06 11:56:38;;;;;;;;;;;;;;;;;;4969354;28;19894;-84
2021/10/06 11:59:05;;;;;;;;;;;;;;;;;;4953522;28;19954;-84
2021/10/06 12:01:31;;;;;;;;;;;;;;;;;;4950252;28;19910;-85
2021/10/06 12:03:56;;;;;;;;;;;;;;;;;;4951471;28;19952;-84
2021/10/06 12:06:23;;;;;;;;;;;;;;;;;;4954830;28;20286;-84
2021/10/06 12:08:49;;;;;;;;;;;;;;;;;;4954361;28;20348;-84
2021/10/06 12:11:15;;;;;;;;;;;;;;;;;;4956740;28;19911;-84
2021/10/06 12:13:41;;;;;;;;;;;;;;;;;;4950291;28;19922;-84
2021/10/06 12:16:07;;;;;;;;;;;;;;;;;;4957044;28;19917;-84
2021/10/06 12:18:33;;;;;;;;;;;;;;;;;;4969665;28;19910;-83
2021/10/06 12:20:59;;;;;;;;;;;;;;;;;;4959814;28;20406;-84
2021/10/06 12:23:25;;;;;;;;;;;;;;;;;;4949837;28;19914;-83
2021/10/06 12:25:50;;;;;;;;;;;;;;;;;;4966152;28;20362;-84
2021/10/06 12:28:18;;;;;;;;;;;;;;;;;;4964682;28;19911;-83
2021/10/06 12:30:44;;;;;;;;;;;;;;;;;;4949277;28;20001;-83
2021/10/06 12:33:10;;;;;;;;;;;;;;;;;;4952319;28;19941;-83
2021/10/06 12:35:36;;;;;;;;;;;;;;;;;;4960707;28;19920;-82
2021/10/06 12:38:02;;;;;;;;;;;;;;;;;;4965224;28;20048;-82
2021/10/06 12:40:28;;;;;;;;;;;;;;;;;;4970069;28;19971;-83
2021/10/06 12:42:54;;;;;;;;;;;;;;;;;;4995248;28;19996;-83
2021/10/06 12:45:20;;;;;;;;;;;;;;;;;;5057514;28;19905;-83
2021/10/06 12:47:46;;;;;;;;;;;;;;;;;;4966436;28;19997;-83
2021/10/06 12:50:11;;;;;;;;;;;;;;;;;;4954678;28;19918;-83
2021/10/06 12:52:37;;;;;;;;;;;;;;;;;;4956380;28;19907;-83
2021/10/06 12:55:03;;;;;;;;;;;;;;;;;;4956273;28;19907;-83
2021/10/06 12:57:29;;;;;;;;;;;;;;;;;;4954704;28;19954;-83
2021/10/06 12:59:55;;;;;;;;;;;;;;;;;;4955547;28;19931;-84
2021/10/06 13:02:21;;;;;;;;;;;;;;;;;;4954480;28;19907;-84
2021/10/06 13:04:49;;;;;;;;;;;;;;;;;;4954877;28;19919;-83
2021/10/06 13:07:15;;;;;;;;;;;;;;;;;;4955177;28;19906;-83
2021/10/06 13:09:41;;;;;;;;;;;;;;;;;;4953657;28;19960;-82
2021/10/06 13:12:07;;;;;;;;;;;;;;;;;;4957245;28;19906;-83
2021/10/06 13:14:33;;;;;;;;;;;;;;;;;;5029799;28;20034;-83
2021/10/06 13:16:59;;;;;;;;;;;;;;;;;;5013368;28;19913;-82
2021/10/06 13:19:25;;;;;;;;;;;;;;;;;;4954351;28;20522;-83
2021/10/06 13:21:51;;;;;;;;;;;;;;;;;;4952245;28;19911;-82
2021/10/06 13:24:17;;;;;;;;;;;;;;;;;;4954266;28;19910;-83
2021/10/06 13:26:46;;;;;;;;;;;;;;;;;;4956113;28;19914;-83
2021/10/06 13:29:12;;;;;;;;;;;;;;;;;;4955945;28;19918;-83
2021/10/06 13:31:38;;;;;;;;;;;;;;;;;;4965302;28;19914;-82
2021/10/06 13:34:05;;;;;;;;;;;;;;;;;;4964187;28;20359;-82
2021/10/06 13:36:31;;;;;;;;;;;;;;;;;;4981335;28;19917;-83
2021/10/06 13:38:57;;;;;;;;;;;;;;;;;;4962055;28;19924;-82
2021/10/06 13:41:23;;;;;;;;;;;;;;;;;;4972957;28;20309;-81
2021/10/06 13:43:50;;;;;;;;;;;;;;;;;;4967922;28;19921;-82
2021/10/06 13:46:18;;;;;;;;;;;;;;;;;;4960752;28;20661;-83
2021/10/06 13:48:44;;;;;;;;;;;;;;;;;;4958105;28;19989;-82
2021/10/06 13:51:10;;;;;;;;;;;;;;;;;;4961851;28;19957;-83
2021/10/06 13:53:36;;;;;;;;;;;;;;;;;;4960667;28;19914;-83
2021/10/06 13:56:02;;;;;;;;;;;;;;;;;;4972078;28;19925;-83
2021/10/06 13:58:28;;;;;;;;;;;;;;;;;;4962706;28;19921;-84
2021/10/06 14:00:54;;;;;;;;;;;;;;;;;;4955099;28;19993;-83
2021/10/06 14:03:20;;;;;;;;;;;;;;;;;;4975146;28;19993;-83
2021/10/06 14:05:46;;;;;;;;;;;;;;;;;;4973633;28;19958;-83
2021/10/06 14:08:11;;;;;;;;;;;;;;;;;;4974018;28;20007;-82
2021/10/06 14:10:37;;;;;;;;;;;;;;;;;;4955161;28;19933;-82
2021/10/06 14:13:03;;;;;;;;;;;;;;;;;;4972729;28;20053;-81
2021/10/06 14:15:29;;;;;;;;;;;;;;;;;;4978081;28;19950;-82
2021/10/06 14:17:56;;;;;;;;;;;;;;;;;;4964812;28;19914;-83
2021/10/06 14:20:22;;;;;;;;;;;;;;;;;;4986476;28;20052;-82
2021/10/06 14:22:48;;;;;;;;;;;;;;;;;;4975657;28;20003;-82
2021/10/06 14:25:14;;;;;;;;;;;;;;;;;;4999381;28;19910;-82
2021/10/06 14:27:40;;;;;;;;;;;;;;;;;;4978787;28;19914;-81
2021/10/06 14:30:06;;;;;;;;;;;;;;;;;;4960087;28;19933;-80
2021/10/06 14:32:32;;;;;;;;;;;;;;;;;;4979880;28;19909;-82
2021/10/06 14:34:58;;;;;;;;;;;;;;;;;;4972049;28;19921;-81
2021/10/06 14:37:24;;;;;;;;;;;;;;;;;;4977826;28;19921;-81
2021/10/06 14:39:49;;;;;;;;;;;;;;;;;;4971733;28;19919;-82
2021/10/06 14:42:18;;;;;;;;;;;;;;;;;;4954870;28;19918;-82
2021/10/06 14:44:44;;;;;;;;;;;;;;;;;;4973154;28;20080;-81
2021/10/06 14:47:10;;;;;;;;;;;;;;;;;;4976438;28;20366;-81
2021/10/06 14:49:37;;;;;;;;;;;;;;;;;;4959695;28;20060;-82
2021/10/06 14:52:03;;;;;;;;;;;;;;;;;;4957394;28;19999;-82
2021/10/06 14:54:31;;;;;;;;;;;;;;;;;;4978148;28;19904;-82
2021/10/06 14:56:58;;;;;;;;;;;;;;;;;;5009505;28;19911;-82
2021/10/06 14:59:24;;;;;;;;;;;;;;;;;;5010734;28;19925;-83
2021/10/06 15:01:50;;;;;;;;;;;;;;;;;;4947747;28;19913;-81
2021/10/06 15:04:16;;;;;;;;;;;;;;;;;;4933951;28;20029;-82
2021/10/06 15:06:45;;;;;;;;;;;;;;;;;;4948353;28;19914;-82
2021/10/06 15:09:12;;;;;;;;;;;;;;;;;;4963161;28;19910;-82
2021/10/06 15:11:38;;;;;;;;;;;;;;;;;;4978411;28;20557;-82
2021/10/06 15:14:04;;;;;;;;;;;;;;;;;;4959137;28;19918;-82
2021/10/06 15:16:30;;;;;;;;;;;;;;;;;;4978059;28;19905;-82
2021/10/06 15:18:56;;;;;;;;;;;;;;;;;;4971208;28;19918;-82
2021/10/06 15:21:22;;;;;;;;;;;;;;;;;;4953789;28;19952;-83
2021/10/06 15:23:48;;;;;;;;;;;;;;;;;;4957017;28;19946;-83
2021/10/06 15:26:14;;;;;;;;;;;;;;;;;;4968422;28;20664;-84
2021/10/06 15:28:40;;;;;;;;;;;;;;;;;;4957360;28;19911;-84
2021/10/06 15:31:06;;;;;;;;;;;;;;;;;;4955323;28;20418;-84
2021/10/06 15:33:32;;;;;;;;;;;;;;;;;;4981763;28;19904;-84
2021/10/06 15:35:58;;;;;;;;;;;;;;;;;;4960926;28;19949;-84
2021/10/06 15:38:24;;;;;;;;;;;;;;;;;;4977152;28;20000;-84
2021/10/06 15:40:50;;;;;;;;;;;;;;;;;;4948057;28;20447;-83
2021/10/06 15:43:15;;;;;;;;;;;;;;;;;;4979815;28;19907;-83
2021/10/06 15:45:41;;;;;;;;;;;;;;;;;;4975908;28;19922;-84
2021/10/06 15:48:07;;;;;;;;;;;;;;;;;;4960506;28;19921;-84
2021/10/06 15:50:33;;;;;;;;;;;;;;;;;;4964846;28;19966;-84
2021/10/06 15:52:59;;;;;;;;;;;;;;;;;;4970808;28;19911;-84
2021/10/06 15:55:25;;;;;;;;;;;;;;;;;;4968656;28;19915;-84
2021/10/06 15:57:51;;;;;;;;;;;;;;;;;;4950739;28;19967;-84
2021/10/06 16:00:17;;;;;;;;;;;;;;;;;;4968449;28;19911;-84
2021/10/06 16:02:43;;;;;;;;;;;;;;;;;;4969554;28;19917;-84
2021/10/06 16:05:09;;;;;;;;;;;;;;;;;;4972413;28;19929;-85
2021/10/06 16:07:35;;;;;;;;;;;;;;;;;;4966539;28;20370;-85
2021/10/06 16:10:04;;;;;;;;;;;;;;;;;;4961992;28;20305;-84
2021/10/06 16:12:33;;;;;;;;;;;;;;;;;;4960017;28;19945;-84
2021/10/06 16:15:01;;;;;;;;;;;;;;;;;;4986059;28;19962;-84
2021/10/06 16:17:27;;;;;;;;;;;;;;;;;;5010601;28;20277;-85
2021/10/06 16:19:52;;;;;;;;;;;;;;;;;;4954886;28;20358;-83
2021/10/06 16:22:18;;;;;;;;;;;;;;;;;;4980450;28;19911;-83
2021/10/06 16:24:48;;;;;;;;;;;;;;;;;;4984367;28;19913;-82
2021/10/06 16:27:14;;;;;;;;;;;;;;;;;;4949843;28;19911;-83
2021/10/06 16:29:40;;;;;;;;;;;;;;;;;;4949226;28;20339;-82
2021/10/06 16:32:06;;;;;;;;;;;;;;;;;;4951915;28;19918;-82
2021/10/06 16:34:32;;;;;;;;;;;;;;;;;;4974146;28;21194;-82
2021/10/06 16:37:01;;;;;;;;;;;;;;;;;;4970477;28;19992;-82